| time (UTC) | temp F | wind direction | speed MPH | gust MPH | rain 1hr in | rain 24hr in | rain mn in | humidity % | barometer mb |
| 20260502170519 | 60 | 229 | 4.0 | 9.0 | 0.00 | 0.00 | 0.00 | 45 | 1009.9 |
| 20260502163525 | 61 | 249 | 4.0 | 8.0 | 0.00 | 0.00 | 0.00 | 45 | 1010.1 |
| 20260502162540 | 60 | 258 | 4.0 | 10.0 | 0.00 | 0.00 | 0.00 | 45 | 1010.1 |
| 20260502161534 | 59 | 267 | 4.0 | 10.0 | 0.00 | 0.00 | 0.00 | 47 | 1010.4 |
| 20260502160529 | 59 | 252 | 4.0 | 8.0 | 0.00 | 0.00 | 0.00 | 47 | 1010.6 |
| 20260502151522 | 55 | 224 | 4.0 | 7.0 | 0.00 | 0.00 | 0.00 | 51 | 1010.9 |
| 20260502150518 | 55 | 247 | 5.0 | 11.0 | 0.00 | 0.00 | 0.00 | 51 | 1011.1 |
| 20260502130517 | 45 | 222 | 3.0 | 4.0 | 0.00 | 0.00 | 0.00 | 60 | 1012.7 |
| 20260502123523 | 44 | 223 | 2.0 | 4.0 | 0.00 | 0.00 | 0.00 | 64 | 1013.1 |
| 20260502122518 | 43 | 215 | 2.0 | 3.0 | 0.00 | 0.00 | 0.00 | 66 | 1013.1 |
| 20260502121535 | 41 | 217 | 2.0 | 2.0 | 0.00 | 0.00 | 0.00 | 68 | 1013.2 |
| 20260502120530 | 40 | 219 | 2.0 | 4.0 | 0.00 | 0.00 | 0.00 | 67 | 1013.3 |
| 20260502115525 | 39 | 215 | 2.0 | 3.0 | 0.00 | 0.00 | 0.00 | 69 | 1013.4 |
| 20260502114519 | 38 | 222 | 2.0 | 3.0 | 0.00 | 0.00 | 0.00 | 70 | 1013.6 |
| 20260502113555 | 37 | 218 | 1.0 | 2.0 | 0.00 | 0.00 | 0.00 | 72 | 1013.7 |
| 20260502112529 | 37 | 223 | 1.0 | 2.0 | 0.00 | 0.00 | 0.00 | 73 | 1013.8 |
| 20260502111523 | 36 | 226 | 1.0 | 2.0 | 0.00 | 0.00 | 0.00 | 73 | 1014.0 |
| 20260502110518 | 36 | 233 | 1.0 | 1.0 | 0.00 | 0.00 | 0.00 | 74 | 1014.0 |
| 20260502105533 | 36 | 214 | 1.0 | 2.0 | 0.00 | 0.00 | 0.00 | 73 | 1014.2 |
| 20260502104527 | 36 | 201 | 1.0 | 2.0 | 0.00 | 0.00 | 0.00 | 74 | 1014.4 |
| 20260502103522 | 35 | 197 | 1.0 | 2.0 | 0.00 | 0.00 | 0.00 | 75 | 1014.6 |
| 20260502102517 | 35 | 199 | 1.0 | 2.0 | 0.00 | 0.00 | 0.00 | 78 | 1014.6 |
| 20260502101532 | 34 | 199 | 1.0 | 2.0 | 0.00 | 0.00 | 0.00 | 79 | 1014.7 |
| 20260502100528 | 33 | 225 | 0.0 | 1.0 | 0.00 | 0.00 | 0.00 | 81 | 1014.7 |
| 20260502091522 | 33 | 253 | 0.0 | 1.0 | 0.00 | 0.00 | 0.00 | 82 | 1015.2 |
| 20260502090558 | 33 | 250 | 0.0 | 1.0 | 0.00 | 0.00 | 0.00 | 83 | 1015.3 |
| 20260502071523 | 33 | 243 | 0.0 | 1.0 | 0.00 | 0.00 | 0.00 | 84 | 1016.2 |
| 20260502070517 | 34 | 246 | 0.0 | 1.0 | 0.00 | 0.00 | 0.00 | 83 | 1016.2 |
| 20260502065532 | 33 | 247 | 1.0 | 2.0 | 0.00 | 0.00 | 0.00 | 86 | 1016.4 |
| 20260502064528 | 33 | 243 | 1.0 | 1.0 | 0.00 | 0.00 | 0.00 | 88 | 1016.3 |
| 20260502063542 | 32 | 236 | 0.0 | 1.0 | 0.00 | 0.00 | 0.00 | 89 | 1016.3 |
| 20260502062515 | 32 | 232 | 1.0 | 1.0 | 0.00 | 0.00 | 0.00 | 88 | 1016.4 |
| 20260502061530 | 33 | 234 | 1.0 | 1.0 | 0.00 | 0.00 | 0.00 | 86 | 1016.3 |
| 20260502060526 | 33 | 234 | 1.0 | 1.0 | 0.00 | 0.00 | 0.00 | 87 | 1016.4 |
| 20260502055521 | 33 | 237 | 1.0 | 1.0 | 0.00 | 0.00 | 0.00 | 86 | 1016.5 |
| 20260502054517 | 33 | 226 | 1.0 | 1.0 | 0.00 | 0.00 | 0.00 | 88 | 1016.4 |
| 20260502053532 | 32 | 214 | 1.0 | 2.0 | 0.00 | 0.00 | 0.00 | 88 | 1016.4 |
| 20260502052528 | 32 | 218 | 1.0 | 1.0 | 0.00 | 0.00 | 0.00 | 88 | 1016.5 |
| 20260502051523 | 33 | 236 | 1.0 | 1.0 | 0.00 | 0.00 | 0.00 | 87 | 1016.6 |
| 20260502050518 | 33 | 235 | 1.0 | 1.0 | 0.00 | 0.00 | 0.00 | 87 | 1016.5 |
| 20260502045534 | 33 | 238 | 1.0 | 1.0 | 0.00 | 0.00 | 0.00 | 86 | 1016.6 |
| 20260502044548 | 34 | 224 | 1.0 | 2.0 | 0.00 | 0.00 | 0.00 | 85 | 1016.7 |
| 20260502043524 | 34 | 239 | 1.0 | 1.0 | 0.00 | 0.00 | 0.00 | 83 | 1016.9 |
| 20260502042518 | 34 | 231 | 1.0 | 1.0 | 0.00 | 0.00 | 0.00 | 80 | 1016.9 |
| 20260502041533 | 34 | 236 | 0.0 | 1.0 | 0.00 | 0.00 | 0.00 | 78 | 1016.9 |
| 20260502040528 | 35 | 249 | 0.0 | 1.0 | 0.00 | 0.00 | 0.00 | 75 | 1016.8 |
| 20260502035544 | 36 | 205 | 2.0 | 2.0 | 0.00 | 0.00 | 0.00 | 73 | 1016.8 |
| 20260502034519 | 36 | 239 | 1.0 | 1.0 | 0.00 | 0.00 | 0.00 | 72 | 1017.1 |
| 20260502033515 | 37 | 241 | 1.0 | 1.0 | 0.00 | 0.00 | 0.00 | 70 | 1017.1 |
| 20260502032530 | 37 | 238 | 1.0 | 1.0 | 0.00 | 0.00 | 0.00 | 69 | 1017.1 |
| 20260502031526 | 37 | 247 | 0.0 | 1.0 | 0.00 | 0.00 | 0.00 | 70 | 1017.2 |
| 20260502030522 | 38 | 226 | 1.0 | 1.0 | 0.00 | 0.00 | 0.00 | 68 | 1017.1 |
| 20260502025517 | 39 | 0.0 | 0.0 | 0.00 | 0.00 | 0.00 | 67 | 1017.1 | |
| 20260502024533 | 39 | 249 | 0.0 | 1.0 | 0.00 | 0.00 | 0.00 | 66 | 1017.1 |
| 20260502023528 | 41 | 244 | 0.0 | 1.0 | 0.00 | 0.00 | 0.00 | 62 | 1017.1 |
| 20260502022523 | 42 | 0.0 | 0.0 | 0.00 | 0.00 | 0.00 | 59 | 1017.1 | |
| 20260502021519 | 43 | 0.0 | 0.0 | 0.00 | 0.00 | 0.00 | 57 | 1017.0 | |
| 20260502020535 | 43 | 0.0 | 0.0 | 0.00 | 0.00 | 0.00 | 57 | 1017.0 | |
| 20260502015529 | 42 | 0.0 | 0.0 | 0.00 | 0.00 | 0.00 | 55 | 1017.0 | |
| 20260502014604 | 44 | 0.0 | 0.0 | 0.00 | 0.00 | 0.00 | 52 | 1016.9 | |
| 20260502013519 | 46 | 0.0 | 0.0 | 0.00 | 0.00 | 0.00 | 48 | 1016.9 | |
| 20260502012534 | 47 | 0.0 | 0.0 | 0.00 | 0.00 | 0.00 | 46 | 1016.8 | |
| 20260502011528 | 49 | 346 | 1.0 | 2.0 | 0.00 | 0.00 | 0.00 | 44 | 1016.8 |
| 20260502010524 | 49 | 335 | 1.0 | 3.0 | 0.00 | 0.00 | 0.00 | 43 | 1016.8 |
| 20260502005519 | 50 | 338 | 1.0 | 3.0 | 0.00 | 0.00 | 0.00 | 42 | 1016.8 |
| 20260502004534 | 51 | 325 | 2.0 | 4.0 | 0.00 | 0.00 | 0.00 | 41 | 1016.9 |
| 20260502003529 | 51 | 324 | 1.0 | 3.0 | 0.00 | 0.00 | 0.00 | 41 | 1017.0 |
| 20260502002525 | 51 | 327 | 1.0 | 3.0 | 0.00 | 0.00 | 0.00 | 40 | 1017.1 |
| 20260502001519 | 52 | 292 | 2.0 | 4.0 | 0.00 | 0.00 | 0.00 | 39 | 1016.9 |
| 20260502000554 | 53 | 332 | 2.0 | 4.0 | 0.00 | 0.00 | 0.00 | 40 | 1017.0 |
| 20260501235549 | 53 | 348 | 2.0 | 6.0 | 0.00 | 0.00 | 0.00 | 40 | 1017.0 |
| 20260501234543 | 53 | 265 | 1.0 | 2.0 | 0.00 | 0.00 | 0.00 | 38 | 1017.1 |
| 20260501233517 | 53 | 11 | 4.0 | 10.0 | 0.00 | 0.00 | 0.00 | 39 | 1017.0 |
| 20260501232532 | 53 | 307 | 2.0 | 4.0 | 0.00 | 0.00 | 0.00 | 38 | 1017.1 |
| 20260501231527 | 53 | 301 | 2.0 | 4.0 | 0.00 | 0.00 | 0.00 | 38 | 1017.1 |
| 20260501230523 | 54 | 333 | 3.0 | 8.0 | 0.00 | 0.00 | 0.00 | 40 | 1017.1 |
| 20260501225518 | 53 | 4 | 2.0 | 6.0 | 0.00 | 0.00 | 0.00 | 39 | 1017.1 |
| 20260501224533 | 53 | 1 | 5.0 | 8.0 | 0.00 | 0.00 | 0.00 | 40 | 1017.0 |
| 20260501223528 | 54 | 317 | 2.0 | 4.0 | 0.00 | 0.00 | 0.00 | 41 | 1017.0 |
| 20260501222525 | 53 | 356 | 2.0 | 6.0 | 0.00 | 0.00 | 0.00 | 40 | 1017.1 |
| 20260501221519 | 53 | 315 | 2.0 | 4.0 | 0.00 | 0.00 | 0.00 | 40 | 1017.2 |
| 20260501220635 | 53 | 325 | 3.0 | 8.0 | 0.00 | 0.00 | 0.00 | 41 | 1017.3 |
| 20260501215530 | 53 | 332 | 4.0 | 8.0 | 0.00 | 0.00 | 0.00 | 41 | 1017.4 |
| 20260501214523 | 54 | 7 | 2.0 | 6.0 | 0.00 | 0.00 | 0.00 | 39 | 1017.4 |
| 20260501213518 | 53 | 352 | 2.0 | 4.0 | 0.00 | 0.00 | 0.00 | 41 | 1017.5 |
| 20260501212534 | 53 | 320 | 3.0 | 7.0 | 0.00 | 0.00 | 0.00 | 42 | 1017.5 |
| 20260501211528 | 52 | 338 | 4.0 | 10.0 | 0.00 | 0.00 | 0.00 | 42 | 1017.5 |
| 20260501210524 | 52 | 355 | 4.0 | 9.0 | 0.00 | 0.00 | 0.00 | 41 | 1017.7 |
| 20260501205518 | 52 | 29 | 4.0 | 9.0 | 0.00 | 0.00 | 0.00 | 39 | 1017.8 |
| 20260501204535 | 52 | 346 | 4.0 | 9.0 | 0.00 | 0.00 | 0.00 | 41 | 1018.0 |
| 20260501203530 | 52 | 357 | 3.0 | 10.0 | 0.00 | 0.00 | 0.00 | 41 | 1017.9 |
| 20260501202525 | 53 | 337 | 4.0 | 8.0 | 0.00 | 0.00 | 0.00 | 43 | 1018.0 |
| 20260501201541 | 52 | 330 | 3.0 | 7.0 | 0.00 | 0.00 | 0.00 | 43 | 1018.1 |
| 20260501200516 | 52 | 302 | 2.0 | 7.0 | 0.00 | 0.00 | 0.00 | 41 | 1018.1 |
| 20260501195532 | 52 | 336 | 3.0 | 8.0 | 0.00 | 0.00 | 0.00 | 43 | 1018.1 |
| 20260501194527 | 52 | 254 | 1.0 | 4.0 | 0.00 | 0.00 | 0.00 | 44 | 1018.1 |
| 20260501193520 | 52 | 304 | 1.0 | 4.0 | 0.00 | 0.00 | 0.00 | 44 | 1018.0 |
| 20260501192516 | 51 | 326 | 2.0 | 4.0 | 0.00 | 0.00 | 0.00 | 44 | 1018.2 |
| 20260501191530 | 50 | 310 | 4.0 | 7.0 | 0.00 | 0.00 | 0.00 | 45 | 1018.2 |
| 20260501190525 | 50 | 322 | 3.0 | 7.0 | 0.00 | 0.00 | 0.00 | 45 | 1018.3 |
| 20260501185519 | 50 | 354 | 5.0 | 9.0 | 0.00 | 0.00 | 0.00 | 45 | 1018.3 |
| 20260501184515 | 50 | 320 | 4.0 | 8.0 | 0.00 | 0.00 | 0.00 | 46 | 1018.4 |
| 20260501183550 | 50 | 332 | 2.0 | 7.0 | 0.00 | 0.00 | 0.00 | 45 | 1018.4 |
| 20260501182525 | 49 | 24 | 3.0 | 6.0 | 0.00 | 0.00 | 0.00 | 44 | 1018.6 |
| 20260501181539 | 50 | 297 | 1.0 | 4.0 | 0.00 | 0.00 | 0.00 | 44 | 1018.5 |
| 20260501180534 | 47 | 318 | 4.0 | 8.0 | 0.00 | 0.00 | 0.00 | 48 | 1018.6 |